sensor_id;sensor_type;location;lat;lon;timestamp;pressure;altitude;pressure_sealevel;temperature;humidity
50011;BME280;35899;50.352;19.390;2023-04-01T00:01:02;96022.52;;;7.52;88.88
50011;BME280;35899;50.352;19.390;2023-04-01T00:03:30;96020.86;;;7.55;88.83
50011;BME280;35899;50.352;19.390;2023-04-01T00:05:59;96013.08;;;7.56;88.66
50011;BME280;35899;50.352;19.390;2023-04-01T00:08:27;96013.84;;;7.55;88.58
50011;BME280;35899;50.352;19.390;2023-04-01T00:10:55;96012.67;;;7.51;88.21
50011;BME280;35899;50.352;19.390;2023-04-01T00:13:24;96012.52;;;7.47;88.14
50011;BME280;35899;50.352;19.390;2023-04-01T00:15:53;96012.42;;;7.41;88.08
50011;BME280;35899;50.352;19.390;2023-04-01T00:18:21;96015.80;;;7.38;88.07
50011;BME280;35899;50.352;19.390;2023-04-01T00:20:50;96008.67;;;7.33;87.95
50011;BME280;35899;50.352;19.390;2023-04-01T00:23:19;96006.61;;;7.28;87.88
50011;BME280;35899;50.352;19.390;2023-04-01T00:25:48;96004.86;;;7.22;87.94
50011;BME280;35899;50.352;19.390;2023-04-01T00:28:17;96001.24;;;7.18;87.92
50011;BME280;35899;50.352;19.390;2023-04-01T00:30:45;95996.73;;;7.14;88.00
50011;BME280;35899;50.352;19.390;2023-04-01T00:33:13;95996.30;;;7.09;87.92
50011;BME280;35899;50.352;19.390;2023-04-01T00:35:41;95997.23;;;7.04;87.82
50011;BME280;35899;50.352;19.390;2023-04-01T00:38:09;95996.00;;;6.99;87.86
50011;BME280;35899;50.352;19.390;2023-04-01T00:40:39;95992.30;;;6.92;87.76
50011;BME280;35899;50.352;19.390;2023-04-01T00:43:12;95993.65;;;6.84;87.81
50011;BME280;35899;50.352;19.390;2023-04-01T00:45:41;95993.52;;;6.78;87.93
50011;BME280;35899;50.352;19.390;2023-04-01T00:48:11;95991.20;;;6.71;87.79
50011;BME280;35899;50.352;19.390;2023-04-01T00:50:40;95994.50;;;6.62;87.84
50011;BME280;35899;50.352;19.390;2023-04-01T00:53:10;95991.97;;;6.55;88.00
50011;BME280;35899;50.352;19.390;2023-04-01T00:55:39;95993.80;;;6.50;88.16
50011;BME280;35899;50.352;19.390;2023-04-01T00:58:11;95993.91;;;6.49;88.45
50011;BME280;35899;50.352;19.390;2023-04-01T01:00:41;95993.61;;;6.48;88.73
50011;BME280;35899;50.352;19.390;2023-04-01T01:03:09;95996.98;;;6.49;88.88
50011;BME280;35899;50.352;19.390;2023-04-01T01:06:26;95998.42;;;6.50;89.02
50011;BME280;35899;50.352;19.390;2023-04-01T01:11:12;96002.80;;;6.58;89.47
50011;BME280;35899;50.352;19.390;2023-04-01T01:13:48;96004.14;;;6.62;89.64
50011;BME280;35899;50.352;19.390;2023-04-01T01:16:29;95997.15;;;6.68;89.60
50011;BME280;35899;50.352;19.390;2023-04-01T01:19:08;95996.60;;;6.72;89.70
50011;BME280;35899;50.352;19.390;2023-04-01T01:22:01;95992.65;;;6.76;89.89
50011;BME280;35899;50.352;19.390;2023-04-01T01:24:30;95992.70;;;6.81;90.02
50011;BME280;35899;50.352;19.390;2023-04-01T01:27:11;95995.63;;;6.85;89.99
50011;BME280;35899;50.352;19.390;2023-04-01T01:29:45;95994.77;;;6.87;90.14
50011;BME280;35899;50.352;19.390;2023-04-01T01:37:56;95993.90;;;6.88;90.03
50011;BME280;35899;50.352;19.390;2023-04-01T01:40:26;95999.16;;;6.86;90.15
50011;BME280;35899;50.352;19.390;2023-04-01T01:42:56;95998.52;;;6.84;90.08
50011;BME280;35899;50.352;19.390;2023-04-01T01:45:30;95994.86;;;6.80;89.98
50011;BME280;35899;50.352;19.390;2023-04-01T01:48:05;95991.80;;;6.78;90.19
50011;BME280;35899;50.352;19.390;2023-04-01T01:50:40;95991.27;;;6.78;90.19
50011;BME280;35899;50.352;19.390;2023-04-01T01:53:11;95989.52;;;6.76;90.09
50011;BME280;35899;50.352;19.390;2023-04-01T01:55:40;95988.66;;;6.74;90.25
50011;BME280;35899;50.352;19.390;2023-04-01T02:00:41;95991.98;;;6.72;90.23
50011;BME280;35899;50.352;19.390;2023-04-01T02:03:11;95984.24;;;6.68;90.36
50011;BME280;35899;50.352;19.390;2023-04-01T02:05:40;95982.65;;;6.64;90.39
50011;BME280;35899;50.352;19.390;2023-04-01T02:08:10;95982.86;;;6.61;90.29
50011;BME280;35899;50.352;19.390;2023-04-01T02:10:41;95981.66;;;6.59;90.45
50011;BME280;35899;50.352;19.390;2023-04-01T02:13:13;95982.59;;;6.61;90.76
50011;BME280;35899;50.352;19.390;2023-04-01T02:15:45;95988.99;;;6.62;90.99
50011;BME280;35899;50.352;19.390;2023-04-01T02:18:15;95991.70;;;6.64;91.06
50011;BME280;35899;50.352;19.390;2023-04-01T02:20:44;95993.92;;;6.67;91.16
50011;BME280;35899;50.352;19.390;2023-04-01T02:23:12;95996.81;;;6.70;91.37
50011;BME280;35899;50.352;19.390;2023-04-01T02:25:41;95996.52;;;6.73;91.61
50011;BME280;35899;50.352;19.390;2023-04-01T02:28:11;96003.16;;;6.78;91.69
50011;BME280;35899;50.352;19.390;2023-04-01T02:30:43;96005.37;;;6.82;91.85
50011;BME280;35899;50.352;19.390;2023-04-01T02:33:12;96009.94;;;6.85;91.86
50011;BME280;35899;50.352;19.390;2023-04-01T02:35:40;96009.11;;;6.89;91.93
50011;BME280;35899;50.352;19.390;2023-04-01T02:38:08;96011.50;;;6.93;92.08
50011;BME280;35899;50.352;19.390;2023-04-01T02:40:44;96017.98;;;6.95;91.98
50011;BME280;35899;50.352;19.390;2023-04-01T02:43:12;96020.65;;;6.98;92.12
50011;BME280;35899;50.352;19.390;2023-04-01T02:45:40;96018.02;;;7.01;92.18
50011;BME280;35899;50.352;19.390;2023-04-01T02:48:07;96020.03;;;7.03;92.21
50011;BME280;35899;50.352;19.390;2023-04-01T02:50:35;96024.14;;;7.06;92.37
50011;BME280;35899;50.352;19.390;2023-04-01T02:53:03;96024.98;;;7.08;92.29
50011;BME280;35899;50.352;19.390;2023-04-01T02:55:31;96030.14;;;7.10;92.33
50011;BME280;35899;50.352;19.390;2023-04-01T02:58:00;96028.41;;;7.12;92.46
50011;BME280;35899;50.352;19.390;2023-04-01T03:00:29;96030.91;;;7.15;92.49
50011;BME280;35899;50.352;19.390;2023-04-01T03:02:56;96029.45;;;7.16;92.48
50011;BME280;35899;50.352;19.390;2023-04-01T03:05:24;96030.67;;;7.18;92.42
50011;BME280;35899;50.352;19.390;2023-04-01T03:07:52;96029.33;;;7.19;92.48
50011;BME280;35899;50.352;19.390;2023-04-01T03:10:20;96031.41;;;7.21;92.41
50011;BME280;35899;50.352;19.390;2023-04-01T03:12:48;96034.79;;;7.22;92.35
50011;BME280;35899;50.352;19.390;2023-04-01T03:15:16;96030.59;;;7.23;92.41
50011;BME280;35899;50.352;19.390;2023-04-01T03:17:44;96034.66;;;7.23;92.49
50011;BME280;35899;50.352;19.390;2023-04-01T03:20:12;96033.05;;;7.24;92.50
50011;BME280;35899;50.352;19.390;2023-04-01T03:22:40;96030.09;;;7.24;92.39
50011;BME280;35899;50.352;19.390;2023-04-01T03:25:09;96031.88;;;7.23;92.17
50011;BME280;35899;50.352;19.390;2023-04-01T03:27:38;96030.15;;;7.24;92.47
50011;BME280;35899;50.352;19.390;2023-04-01T03:30:06;96032.02;;;7.24;92.51
50011;BME280;35899;50.352;19.390;2023-04-01T03:32:37;96033.32;;;7.25;92.38
50011;BME280;35899;50.352;19.390;2023-04-01T03:35:05;96032.06;;;7.26;92.50
50011;BME280;35899;50.352;19.390;2023-04-01T03:37:33;96033.83;;;7.25;92.55
50011;BME280;35899;50.352;19.390;2023-04-01T03:40:01;96031.42;;;7.25;92.44
50011;BME280;35899;50.352;19.390;2023-04-01T03:42:30;96028.19;;;7.24;92.40
50011;BME280;35899;50.352;19.390;2023-04-01T03:44:58;96027.93;;;7.23;92.49
50011;BME280;35899;50.352;19.390;2023-04-01T03:47:25;96025.64;;;7.24;92.57
50011;BME280;35899;50.352;19.390;2023-04-01T03:49:53;96020.42;;;7.23;92.33
50011;BME280;35899;50.352;19.390;2023-04-01T03:52:21;96022.19;;;7.20;92.33
50011;BME280;35899;50.352;19.390;2023-04-01T03:54:49;96022.47;;;7.19;92.38
50011;BME280;35899;50.352;19.390;2023-04-01T03:57:17;96022.70;;;7.16;92.27
50011;BME280;35899;50.352;19.390;2023-04-01T03:59:45;96027.00;;;7.15;92.16
50011;BME280;35899;50.352;19.390;2023-04-01T04:02:13;96028.44;;;7.10;92.22
50011;BME280;35899;50.352;19.390;2023-04-01T04:04:42;96030.30;;;7.06;92.14
50011;BME280;35899;50.352;19.390;2023-04-01T04:07:10;96030.86;;;7.01;92.11
50011;BME280;35899;50.352;19.390;2023-04-01T04:10:04;96029.48;;;6.96;92.16
50011;BME280;35899;50.352;19.390;2023-04-01T04:12:32;96030.28;;;6.88;92.21
50011;BME280;35899;50.352;19.390;2023-04-01T04:15:00;96036.92;;;6.85;92.29
50011;BME280;35899;50.352;19.390;2023-04-01T04:17:28;96037.54;;;6.80;92.35
50011;BME280;35899;50.352;19.390;2023-04-01T04:19:56;96034.80;;;6.76;92.45
50011;BME280;35899;50.352;19.390;2023-04-01T04:22:24;96039.65;;;6.71;92.56
50011;BME280;35899;50.352;19.390;2023-04-01T04:24:52;96039.78;;;6.70;92.77
50011;BME280;35899;50.352;19.390;2023-04-01T04:27:20;96039.31;;;6.69;92.77
50011;BME280;35899;50.352;19.390;2023-04-01T04:29:55;96040.62;;;6.70;92.86
50011;BME280;35899;50.352;19.390;2023-04-01T04:32:23;96038.23;;;6.72;93.03
50011;BME280;35899;50.352;19.390;2023-04-01T04:34:51;96037.50;;;6.72;93.09
50011;BME280;35899;50.352;19.390;2023-04-01T04:37:19;96033.11;;;6.73;93.25
50011;BME280;35899;50.352;19.390;2023-04-01T04:39:47;96031.02;;;6.76;93.27
50011;BME280;35899;50.352;19.390;2023-04-01T04:42:15;96030.08;;;6.76;93.35
50011;BME280;35899;50.352;19.390;2023-04-01T04:44:43;96032.77;;;6.79;93.52
50011;BME280;35899;50.352;19.390;2023-04-01T04:47:11;96032.99;;;6.82;93.63
50011;BME280;35899;50.352;19.390;2023-04-01T04:49:39;96031.91;;;6.88;93.65
50011;BME280;35899;50.352;19.390;2023-04-01T04:52:08;96033.25;;;6.92;93.67
50011;BME280;35899;50.352;19.390;2023-04-01T04:54:36;96036.27;;;6.96;93.79
50011;BME280;35899;50.352;19.390;2023-04-01T04:57:05;96037.94;;;7.01;93.87
50011;BME280;35899;50.352;19.390;2023-04-01T04:59:38;96038.34;;;7.06;93.87
50011;BME280;35899;50.352;19.390;2023-04-01T05:02:12;96038.14;;;7.13;93.97
50011;BME280;35899;50.352;19.390;2023-04-01T05:04:40;96041.33;;;7.18;94.16
50011;BME280;35899;50.352;19.390;2023-04-01T05:07:09;96040.84;;;7.23;94.04
50011;BME280;35899;50.352;19.390;2023-04-01T05:09:37;96044.50;;;7.29;94.04
50011;BME280;35899;50.352;19.390;2023-04-01T05:12:06;96045.10;;;7.34;94.18
50011;BME280;35899;50.352;19.390;2023-04-01T05:14:53;96047.77;;;7.39;94.03
50011;BME280;35899;50.352;19.390;2023-04-01T05:17:21;96048.23;;;7.41;94.03
50011;BME280;35899;50.352;19.390;2023-04-01T05:19:49;96046.63;;;7.44;93.94
50011;BME280;35899;50.352;19.390;2023-04-01T05:22:17;96048.77;;;7.47;93.82
50011;BME280;35899;50.352;19.390;2023-04-01T05:24:44;96043.85;;;7.52;93.82
50011;BME280;35899;50.352;19.390;2023-04-01T05:27:12;96042.81;;;7.60;93.72
50011;BME280;35899;50.352;19.390;2023-04-01T05:29:41;96044.59;;;7.69;93.63
50011;BME280;35899;50.352;19.390;2023-04-01T05:32:15;96046.28;;;7.77;93.69
50011;BME280;35899;50.352;19.390;2023-04-01T05:34:43;96047.44;;;7.86;93.29
50011;BME280;35899;50.352;19.390;2023-04-01T05:37:10;96046.58;;;7.95;93.40
50011;BME280;35899;50.352;19.390;2023-04-01T05:39:40;96049.19;;;8.07;93.32
50011;BME280;35899;50.352;19.390;2023-04-01T05:42:10;96050.40;;;8.20;92.92
50011;BME280;35899;50.352;19.390;2023-04-01T05:44:39;96046.34;;;8.34;93.17
50011;BME280;35899;50.352;19.390;2023-04-01T05:47:07;96047.02;;;8.50;92.65
50011;BME280;35899;50.352;19.390;2023-04-01T05:49:35;96049.44;;;8.63;92.30
50011;BME280;35899;50.352;19.390;2023-04-01T05:52:04;96051.89;;;8.74;92.25
50011;BME280;35899;50.352;19.390;2023-04-01T05:54:34;96049.54;;;8.81;91.70
50011;BME280;35899;50.352;19.390;2023-04-01T05:57:05;96051.75;;;8.85;91.49
50011;BME280;35899;50.352;19.390;2023-04-01T05:59:33;96048.03;;;8.93;91.28
50011;BME280;35899;50.352;19.390;2023-04-01T06:02:01;96049.61;;;9.06;91.30
50011;BME280;35899;50.352;19.390;2023-04-01T06:04:32;96050.83;;;9.17;91.25
50011;BME280;35899;50.352;19.390;2023-04-01T06:07:05;96053.39;;;9.22;90.63
50011;BME280;35899;50.352;19.390;2023-04-01T06:09:33;96055.66;;;9.22;90.23
50011;BME280;35899;50.352;19.390;2023-04-01T06:25:10;96062.81;;;9.47;89.38
50011;BME280;35899;50.352;19.390;2023-04-01T06:38:49;96067.38;;;9.41;89.04
50011;BME280;35899;50.352;19.390;2023-04-01T06:46:48;96067.91;;;9.57;88.69
50011;BME280;35899;50.352;19.390;2023-04-01T06:55:27;96067.85;;;9.88;88.75
50011;BME280;35899;50.352;19.390;2023-04-01T06:58:23;96069.64;;;10.00;88.32
50011;BME280;35899;50.352;19.390;2023-04-01T07:00:54;96067.55;;;10.13;88.17
50011;BME280;35899;50.352;19.390;2023-04-01T07:05:59;96068.88;;;10.43;87.47
50011;BME280;35899;50.352;19.390;2023-04-01T07:08:29;96062.48;;;10.66;87.21
50011;BME280;35899;50.352;19.390;2023-04-01T07:11:34;96066.66;;;10.86;86.57
50011;BME280;35899;50.352;19.390;2023-04-01T07:22:09;96066.80;;;12.10;84.05
50011;BME280;35899;50.352;19.390;2023-04-01T07:25:13;96067.88;;;12.50;84.06
50011;BME280;35899;50.352;19.390;2023-04-01T07:27:42;96064.40;;;12.63;82.90
50011;BME280;35899;50.352;19.390;2023-04-01T07:30:21;96065.88;;;12.56;81.08
50011;BME280;35899;50.352;19.390;2023-04-01T07:32:57;96067.91;;;12.48;81.00
50011;BME280;35899;50.352;19.390;2023-04-01T07:35:29;96069.96;;;12.40;80.41
50011;BME280;35899;50.352;19.390;2023-04-01T07:48:33;96078.74;;;11.25;81.56
50011;BME280;35899;50.352;19.390;2023-04-01T07:51:20;96085.77;;;11.08;81.90
50011;BME280;35899;50.352;19.390;2023-04-01T07:54:00;96087.45;;;10.84;82.35
50011;BME280;35899;50.352;19.390;2023-04-01T08:09:26;96102.16;;;10.41;85.32
50011;BME280;35899;50.352;19.390;2023-04-01T08:17:35;96106.92;;;10.11;87.44
50011;BME280;35899;50.352;19.390;2023-04-01T08:22:42;96111.79;;;10.00;88.11
50011;BME280;35899;50.352;19.390;2023-04-01T08:25:26;96113.30;;;10.09;88.69
50011;BME280;35899;50.352;19.390;2023-04-01T08:33:21;96113.60;;;9.96;89.45
50011;BME280;35899;50.352;19.390;2023-04-01T08:47:29;96118.92;;;9.73;91.30
50011;BME280;35899;50.352;19.390;2023-04-01T09:01:11;96115.75;;;9.84;92.07
50011;BME280;35899;50.352;19.390;2023-04-01T09:09:06;96120.25;;;10.04;92.04
50011;BME280;35899;50.352;19.390;2023-04-01T09:11:59;96123.17;;;10.13;92.59
50011;BME280;35899;50.352;19.390;2023-04-01T09:17:42;96126.13;;;10.36;92.40
50011;BME280;35899;50.352;19.390;2023-04-01T09:28:28;96116.67;;;11.47;89.74
50011;BME280;35899;50.352;19.390;2023-04-01T09:44:12;96119.29;;;10.56;90.07
50011;BME280;35899;50.352;19.390;2023-04-01T09:47:08;96124.04;;;10.33;90.93
50011;BME280;35899;50.352;19.390;2023-04-01T09:50:00;96125.23;;;10.11;90.77
50011;BME280;35899;50.352;19.390;2023-04-01T09:53:13;96127.10;;;9.88;91.33
50011;BME280;35899;50.352;19.390;2023-04-01T10:12:42;96133.88;;;9.95;93.04
50011;BME280;35899;50.352;19.390;2023-04-01T11:03:13;96125.04;;;11.44;90.83
50011;BME280;35899;50.352;19.390;2023-04-01T11:05:50;96130.17;;;11.17;91.04
50011;BME280;35899;50.352;19.390;2023-04-01T12:12:58;96124.80;;;14.14;75.76
50011;BME280;35899;50.352;19.390;2023-04-01T12:27:47;96122.81;;;13.63;76.89
50011;BME280;35899;50.352;19.390;2023-04-01T12:30:32;96122.24;;;13.36;77.42
50011;BME280;35899;50.352;19.390;2023-04-01T12:35:59;96122.92;;;12.89;78.69
50011;BME280;35899;50.352;19.390;2023-04-01T12:42:07;96120.65;;;14.38;76.20
50011;BME280;35899;50.352;19.390;2023-04-01T13:02:45;96116.84;;;17.37;65.70
50011;BME280;35899;50.352;19.390;2023-04-01T13:05:20;96119.33;;;16.40;66.72
50011;BME280;35899;50.352;19.390;2023-04-01T13:16:53;96136.70;;;14.80;67.74
50011;BME280;35899;50.352;19.390;2023-04-01T13:19:21;96139.92;;;14.30;68.34
50011;BME280;35899;50.352;19.390;2023-04-01T13:22:17;96146.39;;;13.86;69.80
50011;BME280;35899;50.352;19.390;2023-04-01T13:28:00;96144.80;;;12.96;72.31
50011;BME280;35899;50.352;19.390;2023-04-01T13:30:55;96149.63;;;12.53;73.19
50011;BME280;35899;50.352;19.390;2023-04-01T13:37:01;96164.88;;;11.78;76.60
50011;BME280;35899;50.352;19.390;2023-04-01T13:46:33;96180.59;;;10.87;81.72
50011;BME280;35899;50.352;19.390;2023-04-01T14:24:19;96215.43;;;11.37;84.60
50011;BME280;35899;50.352;19.390;2023-04-01T14:36:26;96223.77;;;9.52;88.33
50011;BME280;35899;50.352;19.390;2023-04-01T14:39:18;96223.05;;;9.28;88.91
50011;BME280;35899;50.352;19.390;2023-04-01T14:42:15;96224.71;;;9.12;90.11
50011;BME280;35899;50.352;19.390;2023-04-01T14:48:07;96226.02;;;8.97;91.86
50011;BME280;35899;50.352;19.390;2023-04-01T14:50:55;96223.23;;;9.00;92.37
50011;BME280;35899;50.352;19.390;2023-04-01T14:53:35;96224.07;;;9.06;93.07
50011;BME280;35899;50.352;19.390;2023-04-01T14:56:34;96226.48;;;9.10;92.93
50011;BME280;35899;50.352;19.390;2023-04-01T14:59:16;96226.54;;;9.15;93.77
50011;BME280;35899;50.352;19.390;2023-04-01T15:07:31;96230.22;;;9.36;94.00
50011;BME280;35899;50.352;19.390;2023-04-01T15:13:03;96227.55;;;9.47;94.64
50011;BME280;35899;50.352;19.390;2023-04-01T15:15:41;96228.92;;;9.49;94.37
50011;BME280;35899;50.352;19.390;2023-04-01T15:21:17;96230.05;;;9.59;94.01
50011;BME280;35899;50.352;19.390;2023-04-01T15:24:00;96232.40;;;9.74;94.01
50011;BME280;35899;50.352;19.390;2023-04-01T15:29:39;96231.61;;;10.16;92.87
50011;BME280;35899;50.352;19.390;2023-04-01T15:59:20;96258.23;;;10.77;92.11
50011;BME280;35899;50.352;19.390;2023-04-01T16:18:20;96264.86;;;10.17;93.76
50011;BME280;35899;50.352;19.390;2023-04-01T16:25:48;96265.96;;;9.93;94.44
50011;BME280;35899;50.352;19.390;2023-04-01T16:33:37;96276.88;;;9.73;95.29
50011;BME280;35899;50.352;19.390;2023-04-01T16:41:49;96289.05;;;9.54;95.97
50011;BME280;35899;50.352;19.390;2023-04-01T16:44:22;96291.01;;;9.46;96.21
50011;BME280;35899;50.352;19.390;2023-04-01T16:46:51;96295.95;;;9.39;96.25
50011;BME280;35899;50.352;19.390;2023-04-01T16:59:57;96314.06;;;8.93;97.64
50011;BME280;35899;50.352;19.390;2023-04-01T17:02:30;96313.05;;;8.87;98.08
50011;BME280;35899;50.352;19.390;2023-04-01T17:05:11;96316.62;;;8.81;98.37
50011;BME280;35899;50.352;19.390;2023-04-01T17:20:40;96339.33;;;8.60;99.97
50011;BME280;35899;50.352;19.390;2023-04-01T17:31:05;96354.96;;;8.51;100.00
50011;BME280;35899;50.352;19.390;2023-04-01T17:33:55;96362.53;;;8.51;100.00
50011;BME280;35899;50.352;19.390;2023-04-01T17:36:44;96362.80;;;8.52;100.00
50011;BME280;35899;50.352;19.390;2023-04-01T17:44:43;96370.40;;;8.58;100.00
50011;BME280;35899;50.352;19.390;2023-04-01T17:47:19;96372.23;;;8.58;100.00
50011;BME280;35899;50.352;19.390;2023-04-01T17:50:10;96374.41;;;8.59;100.00
50011;BME280;35899;50.352;19.390;2023-04-01T18:01:41;96388.73;;;8.53;100.00
50011;BME280;35899;50.352;19.390;2023-04-01T18:09:57;96401.05;;;8.54;100.00
50011;BME280;35899;50.352;19.390;2023-04-01T18:27:24;96422.30;;;8.52;100.00
50011;BME280;35899;50.352;19.390;2023-04-01T18:30:26;96426.02;;;8.51;100.00
50011;BME280;35899;50.352;19.390;2023-04-01T18:33:08;96429.79;;;8.49;100.00
50011;BME280;35899;50.352;19.390;2023-04-01T18:35:45;96430.70;;;8.47;100.00
50011;BME280;35899;50.352;19.390;2023-04-01T18:38:16;96436.04;;;8.44;100.00
50011;BME280;35899;50.352;19.390;2023-04-01T18:40:53;96440.02;;;8.42;100.00
50011;BME280;35899;50.352;19.390;2023-04-01T18:43:46;96441.38;;;8.40;100.00
50011;BME280;35899;50.352;19.390;2023-04-01T18:46:21;96444.98;;;8.38;100.00
50011;BME280;35899;50.352;19.390;2023-04-01T18:49:01;96446.66;;;8.37;100.00
50011;BME280;35899;50.352;19.390;2023-04-01T18:54:32;96455.64;;;8.31;100.00
50011;BME280;35899;50.352;19.390;2023-04-01T18:57:04;96457.54;;;8.29;100.00
50011;BME280;35899;50.352;19.390;2023-04-01T18:59:48;96458.34;;;8.25;100.00
50011;BME280;35899;50.352;19.390;2023-04-01T19:02:21;96460.70;;;8.23;100.00
50011;BME280;35899;50.352;19.390;2023-04-01T19:09:55;96471.51;;;8.20;100.00
50011;BME280;35899;50.352;19.390;2023-04-01T19:17:52;96474.48;;;8.21;100.00
50011;BME280;35899;50.352;19.390;2023-04-01T19:23:02;96475.73;;;8.18;100.00
50011;BME280;35899;50.352;19.390;2023-04-01T19:25:57;96483.24;;;8.15;100.00
50011;BME280;35899;50.352;19.390;2023-04-01T19:31:35;96489.73;;;8.16;100.00
50011;BME280;35899;50.352;19.390;2023-04-01T19:34:09;96492.36;;;8.16;100.00
50011;BME280;35899;50.352;19.390;2023-04-01T19:39:31;96499.20;;;8.10;100.00
50011;BME280;35899;50.352;19.390;2023-04-01T19:42:16;96499.92;;;8.08;100.00
50011;BME280;35899;50.352;19.390;2023-04-01T19:47:45;96503.22;;;8.05;100.00
50011;BME280;35899;50.352;19.390;2023-04-01T19:52:59;96509.32;;;8.04;100.00
50011;BME280;35899;50.352;19.390;2023-04-01T19:55:41;96507.81;;;8.02;100.00
50011;BME280;35899;50.352;19.390;2023-04-01T19:58:15;96510.53;;;8.02;100.00
50011;BME280;35899;50.352;19.390;2023-04-01T20:00:52;96511.55;;;8.00;100.00
50011;BME280;35899;50.352;19.390;2023-04-01T20:11:12;96524.30;;;8.00;100.00
50011;BME280;35899;50.352;19.390;2023-04-01T20:13:45;96526.35;;;8.00;100.00
50011;BME280;35899;50.352;19.390;2023-04-01T20:16:17;96532.58;;;8.00;100.00
50011;BME280;35899;50.352;19.390;2023-04-01T20:19:06;96531.76;;;8.00;100.00
50011;BME280;35899;50.352;19.390;2023-04-01T20:21:45;96532.13;;;7.99;100.00
50011;BME280;35899;50.352;19.390;2023-04-01T20:24:21;96529.68;;;8.00;100.00
50011;BME280;35899;50.352;19.390;2023-04-01T20:35:34;96534.14;;;7.94;100.00
50011;BME280;35899;50.352;19.390;2023-04-01T20:46:45;96547.54;;;7.92;100.00
50011;BME280;35899;50.352;19.390;2023-04-01T20:51:59;96549.92;;;7.93;100.00
50011;BME280;35899;50.352;19.390;2023-04-01T20:54:41;96554.41;;;7.92;100.00
50011;BME280;35899;50.352;19.390;2023-04-01T20:59:55;96556.79;;;7.91;100.00
50011;BME280;35899;50.352;19.390;2023-04-01T21:07:51;96568.02;;;7.88;100.00
50011;BME280;35899;50.352;19.390;2023-04-01T21:26:27;96571.90;;;7.85;100.00
50011;BME280;35899;50.352;19.390;2023-04-01T21:37:05;96584.39;;;7.83;100.00
50011;BME280;35899;50.352;19.390;2023-04-01T21:40:01;96584.52;;;7.84;100.00
50011;BME280;35899;50.352;19.390;2023-04-01T21:56:06;96589.48;;;7.82;100.00
50011;BME280;35899;50.352;19.390;2023-04-01T22:04:42;96593.27;;;7.80;100.00
50011;BME280;35899;50.352;19.390;2023-04-01T22:07:20;96597.47;;;7.79;100.00
50011;BME280;35899;50.352;19.390;2023-04-01T22:12:42;96602.25;;;7.80;100.00
50011;BME280;35899;50.352;19.390;2023-04-01T22:15:40;96604.64;;;7.80;100.00
50011;BME280;35899;50.352;19.390;2023-04-01T22:18:36;96604.87;;;7.79;100.00
50011;BME280;35899;50.352;19.390;2023-04-01T22:21:13;96609.94;;;7.76;100.00
50011;BME280;35899;50.352;19.390;2023-04-01T22:26:38;96614.23;;;7.74;100.00
50011;BME280;35899;50.352;19.390;2023-04-01T22:29:23;96618.02;;;7.74;100.00
50011;BME280;35899;50.352;19.390;2023-04-01T22:31:54;96619.41;;;7.74;100.00
50011;BME280;35899;50.352;19.390;2023-04-01T22:37:10;96618.58;;;7.76;100.00
50011;BME280;35899;50.352;19.390;2023-04-01T22:42:39;96624.77;;;7.74;100.00
50011;BME280;35899;50.352;19.390;2023-04-01T22:47:56;96627.33;;;7.70;100.00
50011;BME280;35899;50.352;19.390;2023-04-01T22:55:50;96633.46;;;7.66;100.00
50011;BME280;35899;50.352;19.390;2023-04-01T22:58:25;96631.96;;;7.65;100.00
50011;BME280;35899;50.352;19.390;2023-04-01T23:01:01;96635.46;;;7.64;100.00
50011;BME280;35899;50.352;19.390;2023-04-01T23:03:34;96637.00;;;7.65;100.00
50011;BME280;35899;50.352;19.390;2023-04-01T23:06:03;96635.98;;;7.63;100.00
50011;BME280;35899;50.352;19.390;2023-04-01T23:08:46;96636.27;;;7.61;100.00
50011;BME280;35899;50.352;19.390;2023-04-01T23:19:23;96644.98;;;7.58;100.00
50011;BME280;35899;50.352;19.390;2023-04-01T23:22:16;96647.45;;;7.55;100.00
50011;BME280;35899;50.352;19.390;2023-04-01T23:24:50;96646.17;;;7.53;100.00
50011;BME280;35899;50.352;19.390;2023-04-01T23:27:27;96646.95;;;7.52;100.00
50011;BME280;35899;50.352;19.390;2023-04-01T23:29:57;96647.66;;;7.50;100.00
50011;BME280;35899;50.352;19.390;2023-04-01T23:32:24;96652.88;;;7.49;100.00
50011;BME280;35899;50.352;19.390;2023-04-01T23:34:56;96655.77;;;7.50;100.00
50011;BME280;35899;50.352;19.390;2023-04-01T23:37:25;96658.95;;;7.51;100.00
50011;BME280;35899;50.352;19.390;2023-04-01T23:39:57;96657.96;;;7.50;100.00
50011;BME280;35899;50.352;19.390;2023-04-01T23:42:29;96662.59;;;7.51;100.00
50011;BME280;35899;50.352;19.390;2023-04-01T23:45:03;96660.55;;;7.50;100.00
50011;BME280;35899;50.352;19.390;2023-04-01T23:47:36;96662.41;;;7.51;100.00
50011;BME280;35899;50.352;19.390;2023-04-01T23:52:43;96660.52;;;7.50;100.00
50011;BME280;35899;50.352;19.390;2023-04-01T23:55:15;96662.98;;;7.50;100.00
